EZS5828 EKCH-LFSB
Flight info
| Callsign | EZS5828 |
|---|---|
| Flight time | 1h 18m |
| Altitude | 38000 |
| Route | NEXEN T503 GIMRU DCT MICOS DCT AGATI/N0432F390 DCT OTMON DCT SWALM DCT OMOGI T721 SUNEG T715 RIGVI |
| Aircraft | A320/M-SDE2E3FGHIJ1RWXYZ/LB1 |
Departure
| Time | 2026-04-30 10:07 |
|---|---|
| Airport | Copenhagen Kastrup Airport (EKCH) |
Arrival
| Time | 2026-04-30 11:26 |
|---|---|
| Airport | EuroAirport Basel–Mulhouse–Freiburg (LFSB) |
| Time | Latitude | Longitude | Altitude | Speed | Heading |
|---|---|---|---|---|---|
| 2026-04-30 09:27 | 55.62520 | 12.65762 | 17 ft | 0 kts | 358° |
| 2026-04-30 09:53 | 55.62521 | 12.65762 | 17 ft | 0 kts | 358° |
| 2026-04-30 09:55 | 55.62510 | 12.65762 | 17 ft | 4 kts | 358° |
| 2026-04-30 09:55 | 55.62483 | 12.65763 | 17 ft | 4 kts | 358° |
| 2026-04-30 09:55 | 55.62461 | 12.65765 | 17 ft | 4 kts | 343° |
| 2026-04-30 09:55 | 55.62445 | 12.65788 | 18 ft | 4 kts | 278° |
| 2026-04-30 09:56 | 55.62444 | 12.65821 | 17 ft | 0 kts | 269° |
| 2026-04-30 10:02 | 55.62443 | 12.65764 | 17 ft | 9 kts | 269° |
| 2026-04-30 10:02 | 55.62442 | 12.65627 | 17 ft | 13 kts | 269° |
| 2026-04-30 10:03 | 55.62439 | 12.65444 | 17 ft | 17 kts | 268° |
| 2026-04-30 10:03 | 55.62432 | 12.65241 | 17 ft | 10 kts | 251° |
| 2026-04-30 10:03 | 55.62369 | 12.65204 | 17 ft | 10 kts | 179° |
| 2026-04-30 10:03 | 55.62299 | 12.65191 | 17 ft | 10 kts | 208° |
| 2026-04-30 10:04 | 55.62276 | 12.65079 | 17 ft | 12 kts | 281° |
| 2026-04-30 10:04 | 55.62325 | 12.64939 | 18 ft | 15 kts | 303° |
| 2026-04-30 10:04 | 55.62344 | 12.64792 | 19 ft | 13 kts | 248° |
| 2026-04-30 10:04 | 55.62303 | 12.64628 | 18 ft | 17 kts | 245° |
| 2026-04-30 10:05 | 55.62252 | 12.64423 | 17 ft | 19 kts | 242° |
| 2026-04-30 10:05 | 55.62153 | 12.64308 | 16 ft | 17 kts | 205° |
| 2026-04-30 10:05 | 55.62049 | 12.64221 | 19 ft | 16 kts | 205° |
| 2026-04-30 10:05 | 55.61948 | 12.64136 | 19 ft | 16 kts | 205° |
| 2026-04-30 10:06 | 55.61858 | 12.64074 | 17 ft | 13 kts | 188° |
| 2026-04-30 10:06 | 55.61766 | 12.64079 | 18 ft | 13 kts | 175° |
| 2026-04-30 10:06 | 55.61679 | 12.64090 | 22 ft | 11 kts | 176° |
| 2026-04-30 10:06 | 55.61613 | 12.64057 | 22 ft | 10 kts | 215° |
| 2026-04-30 10:07 | 55.61487 | 12.63860 | 19 ft | 55 kts | 221° |
| 2026-04-30 10:07 | 55.61002 | 12.63110 | 21 ft | 126 kts | 221° |
| 2026-04-30 10:07 | 55.60204 | 12.61872 | 97 ft | 171 kts | 225° |
| 2026-04-30 10:07 | 55.59316 | 12.60517 | 885 ft | 168 kts | 225° |
| 2026-04-30 10:08 | 55.58415 | 12.59171 | 1706 ft | 171 kts | 224° |
| 2026-04-30 10:08 | 55.57472 | 12.57710 | 2221 ft | 191 kts | 226° |
| 2026-04-30 10:08 | 55.56381 | 12.56105 | 2617 ft | 219 kts | 219° |
| 2026-04-30 10:08 | 55.55061 | 12.54477 | 3226 ft | 243 kts | 218° |
| 2026-04-30 10:09 | 55.53602 | 12.52697 | 3903 ft | 263 kts | 217° |
| 2026-04-30 10:09 | 55.52075 | 12.50834 | 4888 ft | 271 kts | 217° |
| 2026-04-30 10:09 | 55.50505 | 12.48920 | 5885 ft | 278 kts | 216° |
| 2026-04-30 10:09 | 55.48897 | 12.46959 | 6862 ft | 285 kts | 215° |
| 2026-04-30 10:10 | 55.47269 | 12.44973 | 7773 ft | 292 kts | 215° |
| 2026-04-30 10:10 | 55.45560 | 12.42886 | 8715 ft | 298 kts | 215° |
| 2026-04-30 10:10 | 55.43861 | 12.40815 | 9649 ft | 304 kts | 214° |
| 2026-04-30 10:10 | 55.42096 | 12.38661 | 10458 ft | 317 kts | 214° |
| 2026-04-30 10:11 | 55.40208 | 12.36357 | 10834 ft | 342 kts | 214° |
| 2026-04-30 10:11 | 55.38212 | 12.33930 | 11493 ft | 354 kts | 214° |
| 2026-04-30 10:11 | 55.36163 | 12.31442 | 12337 ft | 361 kts | 214° |
| 2026-04-30 10:11 | 55.34076 | 12.28905 | 13164 ft | 368 kts | 214° |
| 2026-04-30 10:12 | 55.31953 | 12.26330 | 13995 ft | 374 kts | 214° |
| 2026-04-30 10:12 | 55.29787 | 12.23704 | 14745 ft | 381 kts | 214° |
| 2026-04-30 10:12 | 55.27619 | 12.21077 | 15453 ft | 385 kts | 214° |
| 2026-04-30 10:12 | 55.25401 | 12.18402 | 16264 ft | 388 kts | 214° |
| 2026-04-30 10:13 | 55.23160 | 12.15711 | 17005 ft | 393 kts | 214° |
| 2026-04-30 10:13 | 55.20891 | 12.12991 | 17740 ft | 398 kts | 214° |
| 2026-04-30 10:13 | 55.18612 | 12.10182 | 18464 ft | 403 kts | 216° |
| 2026-04-30 10:13 | 55.16348 | 12.07237 | 19116 ft | 409 kts | 216° |
| 2026-04-30 10:14 | 55.14047 | 12.04275 | 19741 ft | 413 kts | 216° |
| 2026-04-30 10:14 | 55.11717 | 12.01291 | 20377 ft | 417 kts | 216° |
| 2026-04-30 10:14 | 55.06991 | 11.95277 | 21659 ft | 424 kts | 216° |
| 2026-04-30 10:15 | 55.04599 | 11.92205 | 22290 ft | 428 kts | 216° |
| 2026-04-30 10:15 | 55.02181 | 11.89135 | 22902 ft | 432 kts | 216° |
| 2026-04-30 10:15 | 54.99731 | 11.86044 | 23517 ft | 435 kts | 215° |
| 2026-04-30 10:15 | 54.97271 | 11.82930 | 24118 ft | 439 kts | 216° |
| 2026-04-30 10:16 | 54.94791 | 11.79776 | 24624 ft | 443 kts | 216° |
| 2026-04-30 10:16 | 54.92317 | 11.76658 | 25134 ft | 446 kts | 215° |
| 2026-04-30 10:16 | 54.89794 | 11.73488 | 25642 ft | 449 kts | 216° |
| 2026-04-30 10:17 | 54.84710 | 11.67095 | 26651 ft | 454 kts | 216° |
| 2026-04-30 10:17 | 54.79561 | 11.60646 | 27663 ft | 459 kts | 216° |
| 2026-04-30 10:17 | 54.76967 | 11.57390 | 28159 ft | 461 kts | 216° |
| 2026-04-30 10:18 | 54.74358 | 11.54120 | 28650 ft | 464 kts | 216° |
| 2026-04-30 10:18 | 54.71729 | 11.50845 | 29142 ft | 466 kts | 216° |
| 2026-04-30 10:18 | 54.69083 | 11.47572 | 29591 ft | 470 kts | 216° |
| 2026-04-30 10:19 | 54.63742 | 11.40935 | 30497 ft | 475 kts | 217° |
| 2026-04-30 10:19 | 54.61044 | 11.37599 | 30880 ft | 478 kts | 216° |
| 2026-04-30 10:19 | 54.58338 | 11.34258 | 31231 ft | 479 kts | 216° |
| 2026-04-30 10:19 | 54.55626 | 11.30913 | 31642 ft | 480 kts | 216° |
| 2026-04-30 10:20 | 54.52896 | 11.27584 | 32021 ft | 482 kts | 216° |
| 2026-04-30 10:20 | 54.47422 | 11.20927 | 32946 ft | 480 kts | 215° |
| 2026-04-30 10:20 | 54.44700 | 11.17620 | 33436 ft | 479 kts | 216° |
| 2026-04-30 10:21 | 54.41985 | 11.14325 | 33926 ft | 477 kts | 215° |
| 2026-04-30 10:21 | 54.39270 | 11.11046 | 34421 ft | 476 kts | 215° |
| 2026-04-30 10:21 | 54.36560 | 11.07785 | 34866 ft | 475 kts | 215° |
| 2026-04-30 10:21 | 54.33860 | 11.04529 | 35297 ft | 473 kts | 215° |
| 2026-04-30 10:22 | 54.31140 | 11.01370 | 35726 ft | 472 kts | 211° |
| 2026-04-30 10:22 | 54.28264 | 10.98827 | 36134 ft | 471 kts | 203° |
| 2026-04-30 10:22 | 54.25254 | 10.96650 | 36527 ft | 470 kts | 202° |
| 2026-04-30 10:22 | 54.22237 | 10.94505 | 36906 ft | 469 kts | 202° |
| 2026-04-30 10:23 | 54.19231 | 10.92343 | 37275 ft | 468 kts | 202° |
| 2026-04-30 10:23 | 54.16239 | 10.90174 | 37639 ft | 467 kts | 203° |
| 2026-04-30 10:23 | 54.13248 | 10.88008 | 38001 ft | 466 kts | 203° |
| 2026-04-30 10:23 | 54.10265 | 10.85863 | 38362 ft | 465 kts | 203° |
| 2026-04-30 10:24 | 54.07280 | 10.83730 | 38706 ft | 464 kts | 203° |
| 2026-04-30 10:24 | 54.04304 | 10.81600 | 39033 ft | 464 kts | 203° |
| 2026-04-30 10:24 | 54.01334 | 10.79476 | 39323 ft | 463 kts | 203° |
| 2026-04-30 10:24 | 53.98355 | 10.77340 | 39487 ft | 464 kts | 203° |
| 2026-04-30 10:25 | 53.92403 | 10.73095 | 39519 ft | 463 kts | 203° |
| 2026-04-30 10:25 | 53.86463 | 10.68878 | 39517 ft | 463 kts | 203° |
| 2026-04-30 10:26 | 53.80515 | 10.64673 | 39514 ft | 463 kts | 202° |
| 2026-04-30 10:26 | 53.74568 | 10.60471 | 39515 ft | 463 kts | 203° |
| 2026-04-30 10:27 | 53.68625 | 10.56294 | 39518 ft | 463 kts | 202° |
| 2026-04-30 10:27 | 53.62713 | 10.52135 | 39520 ft | 463 kts | 202° |
| 2026-04-30 10:28 | 53.56761 | 10.47977 | 39519 ft | 463 kts | 202° |
| 2026-04-30 10:28 | 53.50811 | 10.43808 | 39519 ft | 463 kts | 202° |
| 2026-04-30 10:29 | 53.44845 | 10.39673 | 39519 ft | 464 kts | 202° |
| 2026-04-30 10:29 | 53.38889 | 10.35536 | 39513 ft | 464 kts | 202° |
| 2026-04-30 10:30 | 53.32922 | 10.31425 | 39519 ft | 464 kts | 202° |
| 2026-04-30 10:30 | 53.26955 | 10.27313 | 39512 ft | 463 kts | 202° |
| 2026-04-30 10:31 | 53.20997 | 10.23211 | 39514 ft | 463 kts | 202° |
| 2026-04-30 10:31 | 53.16037 | 10.19817 | 39519 ft | 463 kts | 202° |
| 2026-04-30 10:32 | 53.10069 | 10.15747 | 39514 ft | 463 kts | 202° |
| 2026-04-30 10:32 | 53.04108 | 10.11679 | 39523 ft | 463 kts | 202° |
| 2026-04-30 10:33 | 52.98136 | 10.07627 | 39520 ft | 463 kts | 202° |
| 2026-04-30 10:33 | 52.92166 | 10.03598 | 39523 ft | 463 kts | 201° |
| 2026-04-30 10:34 | 52.85989 | 10.00612 | 39525 ft | 463 kts | 194° |
| 2026-04-30 10:34 | 52.79761 | 9.97904 | 39522 ft | 463 kts | 194° |
| 2026-04-30 10:35 | 52.73530 | 9.95178 | 39523 ft | 463 kts | 194° |
| 2026-04-30 10:35 | 52.67306 | 9.92459 | 39518 ft | 463 kts | 194° |
| 2026-04-30 10:36 | 52.61072 | 9.89771 | 39516 ft | 463 kts | 194° |
| 2026-04-30 10:36 | 52.54835 | 9.87084 | 39519 ft | 463 kts | 194° |
| 2026-04-30 10:37 | 52.48600 | 9.84398 | 39519 ft | 463 kts | 194° |
| 2026-04-30 10:37 | 52.42402 | 9.81740 | 39524 ft | 463 kts | 194° |
| 2026-04-30 10:38 | 52.36163 | 9.79069 | 39518 ft | 463 kts | 194° |
| 2026-04-30 10:38 | 52.29920 | 9.76396 | 39517 ft | 464 kts | 193° |
| 2026-04-30 10:39 | 52.23673 | 9.73726 | 39515 ft | 464 kts | 193° |
| 2026-04-30 10:39 | 52.17421 | 9.71088 | 39511 ft | 464 kts | 193° |
| 2026-04-30 10:40 | 52.11167 | 9.68425 | 39509 ft | 464 kts | 193° |
| 2026-04-30 10:40 | 52.04909 | 9.65783 | 39504 ft | 465 kts | 193° |
| 2026-04-30 10:41 | 51.98648 | 9.63155 | 39506 ft | 465 kts | 193° |
| 2026-04-30 10:41 | 51.92387 | 9.60519 | 39503 ft | 465 kts | 193° |
| 2026-04-30 10:42 | 51.86122 | 9.57898 | 39501 ft | 465 kts | 193° |
| 2026-04-30 10:42 | 51.79854 | 9.55279 | 39500 ft | 465 kts | 193° |
| 2026-04-30 10:43 | 51.73593 | 9.52679 | 39499 ft | 465 kts | 193° |
| 2026-04-30 10:43 | 51.67323 | 9.50075 | 39495 ft | 465 kts | 193° |
| 2026-04-30 10:44 | 51.61100 | 9.47508 | 39499 ft | 465 kts | 193° |
| 2026-04-30 10:44 | 51.54829 | 9.44916 | 39494 ft | 465 kts | 193° |
| 2026-04-30 10:45 | 51.48562 | 9.42341 | 39496 ft | 465 kts | 193° |
| 2026-04-30 10:45 | 51.42288 | 9.39767 | 39503 ft | 465 kts | 193° |
| 2026-04-30 10:46 | 51.36016 | 9.37176 | 39491 ft | 465 kts | 193° |
| 2026-04-30 10:46 | 51.29726 | 9.34643 | 39475 ft | 465 kts | 191° |
| 2026-04-30 10:47 | 51.23347 | 9.32971 | 39469 ft | 464 kts | 186° |
| 2026-04-30 10:47 | 51.16957 | 9.31431 | 39473 ft | 464 kts | 187° |
| 2026-04-30 10:48 | 51.10570 | 9.29880 | 39472 ft | 464 kts | 186° |
| 2026-04-30 10:48 | 51.04223 | 9.28348 | 39471 ft | 464 kts | 186° |
| 2026-04-30 10:49 | 50.97835 | 9.26820 | 39470 ft | 464 kts | 187° |
| 2026-04-30 10:49 | 50.91452 | 9.25287 | 39452 ft | 464 kts | 186° |
| 2026-04-30 10:50 | 50.85068 | 9.23760 | 39455 ft | 464 kts | 186° |
| 2026-04-30 10:50 | 50.78676 | 9.22220 | 39453 ft | 464 kts | 186° |
| 2026-04-30 10:51 | 50.72286 | 9.20692 | 39458 ft | 464 kts | 186° |
| 2026-04-30 10:51 | 50.65890 | 9.19345 | 39451 ft | 464 kts | 185° |
| 2026-04-30 10:52 | 50.59487 | 9.18019 | 39449 ft | 464 kts | 185° |
| 2026-04-30 10:52 | 50.53127 | 9.16708 | 39449 ft | 464 kts | 185° |
| 2026-04-30 10:53 | 50.46730 | 9.15392 | 39444 ft | 464 kts | 185° |
| 2026-04-30 10:53 | 50.40332 | 9.14065 | 39444 ft | 464 kts | 185° |
| 2026-04-30 10:54 | 50.33933 | 9.12741 | 39443 ft | 464 kts | 185° |
| 2026-04-30 10:54 | 50.27536 | 9.11429 | 39437 ft | 464 kts | 185° |
| 2026-04-30 10:55 | 50.21130 | 9.10127 | 39434 ft | 464 kts | 185° |
| 2026-04-30 10:55 | 50.14733 | 9.08829 | 39433 ft | 463 kts | 185° |
| 2026-04-30 10:56 | 50.08341 | 9.07514 | 39432 ft | 463 kts | 185° |
| 2026-04-30 10:56 | 50.01949 | 9.06235 | 39427 ft | 463 kts | 185° |
| 2026-04-30 10:57 | 49.95556 | 9.04932 | 39416 ft | 463 kts | 185° |
| 2026-04-30 10:57 | 49.89166 | 9.03638 | 39416 ft | 463 kts | 184° |
| 2026-04-30 10:58 | 49.82809 | 9.02375 | 39409 ft | 463 kts | 184° |
| 2026-04-30 10:58 | 49.76426 | 9.01102 | 39406 ft | 462 kts | 185° |
| 2026-04-30 10:59 | 49.70045 | 8.99810 | 39396 ft | 462 kts | 184° |
| 2026-04-30 10:59 | 49.63667 | 8.98460 | 39395 ft | 463 kts | 187° |
| 2026-04-30 11:00 | 49.57328 | 8.96657 | 39392 ft | 463 kts | 187° |
| 2026-04-30 11:00 | 49.50980 | 8.94913 | 39379 ft | 463 kts | 187° |
| 2026-04-30 11:01 | 49.44642 | 8.93172 | 39382 ft | 463 kts | 187° |
| 2026-04-30 11:01 | 49.38343 | 8.91454 | 39382 ft | 463 kts | 187° |
| 2026-04-30 11:02 | 49.31995 | 8.89714 | 39374 ft | 462 kts | 187° |
| 2026-04-30 11:02 | 49.25662 | 8.87993 | 39361 ft | 462 kts | 187° |
| 2026-04-30 11:03 | 49.19540 | 8.84924 | 39351 ft | 468 kts | 207° |
| 2026-04-30 11:03 | 49.16806 | 8.82220 | 39351 ft | 469 kts | 218° |
| 2026-04-30 11:04 | 49.11918 | 8.75607 | 39352 ft | 469 kts | 221° |
| 2026-04-30 11:04 | 49.07059 | 8.68967 | 39339 ft | 469 kts | 221° |
| 2026-04-30 11:05 | 49.02180 | 8.62353 | 39334 ft | 469 kts | 221° |
| 2026-04-30 11:05 | 48.97206 | 8.55953 | 39329 ft | 468 kts | 216° |
| 2026-04-30 11:06 | 48.91975 | 8.50070 | 39325 ft | 467 kts | 216° |
| 2026-04-30 11:06 | 48.86766 | 8.44176 | 39326 ft | 466 kts | 216° |
| 2026-04-30 11:07 | 48.81575 | 8.38270 | 39316 ft | 466 kts | 216° |
| 2026-04-30 11:07 | 48.76377 | 8.32418 | 39308 ft | 465 kts | 216° |
| 2026-04-30 11:07 | 48.73767 | 8.29510 | 38866 ft | 466 kts | 216° |
| 2026-04-30 11:08 | 48.71158 | 8.26614 | 37646 ft | 476 kts | 215° |
| 2026-04-30 11:08 | 48.68481 | 8.23646 | 36232 ft | 480 kts | 215° |
| 2026-04-30 11:08 | 48.65776 | 8.20641 | 34876 ft | 483 kts | 214° |
| 2026-04-30 11:08 | 48.63076 | 8.17638 | 33690 ft | 480 kts | 214° |
| 2026-04-30 11:09 | 48.60401 | 8.14667 | 32557 ft | 473 kts | 214° |
| 2026-04-30 11:09 | 48.57764 | 8.11759 | 31496 ft | 466 kts | 214° |
| 2026-04-30 11:09 | 48.55168 | 8.08895 | 30537 ft | 458 kts | 214° |
| 2026-04-30 11:09 | 48.52615 | 8.06078 | 29453 ft | 450 kts | 214° |
| 2026-04-30 11:10 | 48.50107 | 8.03323 | 28377 ft | 443 kts | 214° |
| 2026-04-30 11:10 | 48.47627 | 8.00610 | 27350 ft | 436 kts | 214° |
| 2026-04-30 11:10 | 48.45198 | 7.97921 | 26342 ft | 430 kts | 214° |
| 2026-04-30 11:10 | 48.42797 | 7.95289 | 25351 ft | 424 kts | 214° |
| 2026-04-30 11:11 | 48.40420 | 7.92697 | 24408 ft | 419 kts | 214° |
| 2026-04-30 11:11 | 48.38040 | 7.90227 | 23422 ft | 413 kts | 207° |
| 2026-04-30 11:11 | 48.35442 | 7.88532 | 22460 ft | 403 kts | 194° |
| 2026-04-30 11:11 | 48.32730 | 7.87740 | 21544 ft | 393 kts | 184° |
| 2026-04-30 11:12 | 48.30030 | 7.87288 | 20617 ft | 388 kts | 183° |
| 2026-04-30 11:12 | 48.27364 | 7.86847 | 19754 ft | 383 kts | 184° |
| 2026-04-30 11:12 | 48.24745 | 7.86396 | 19119 ft | 372 kts | 184° |
| 2026-04-30 11:12 | 48.22234 | 7.85970 | 18694 ft | 356 kts | 183° |
| 2026-04-30 11:13 | 48.19823 | 7.85459 | 18199 ft | 345 kts | 192° |
| 2026-04-30 11:13 | 48.17640 | 7.84109 | 17773 ft | 337 kts | 211° |
| 2026-04-30 11:13 | 48.15863 | 7.81830 | 17352 ft | 339 kts | 231° |
| 2026-04-30 11:13 | 48.14668 | 7.78799 | 16924 ft | 339 kts | 250° |
| 2026-04-30 11:14 | 48.14168 | 7.75378 | 16508 ft | 337 kts | 267° |
| 2026-04-30 11:14 | 48.14037 | 7.71918 | 16101 ft | 337 kts | 269° |
| 2026-04-30 11:14 | 48.13930 | 7.68400 | 15687 ft | 339 kts | 269° |
| 2026-04-30 11:14 | 48.13811 | 7.64876 | 15275 ft | 339 kts | 268° |
| 2026-04-30 11:15 | 48.13681 | 7.61351 | 14860 ft | 340 kts | 268° |
| 2026-04-30 11:15 | 48.13536 | 7.57822 | 14440 ft | 340 kts | 265° |
| 2026-04-30 11:15 | 48.12979 | 7.54389 | 14017 ft | 341 kts | 247° |
| 2026-04-30 11:15 | 48.11746 | 7.51381 | 13540 ft | 340 kts | 227° |
| 2026-04-30 11:16 | 48.09966 | 7.49111 | 13150 ft | 335 kts | 209° |
| 2026-04-30 11:16 | 48.07846 | 7.47723 | 12725 ft | 331 kts | 196° |
| 2026-04-30 11:16 | 48.05655 | 7.46684 | 12293 ft | 330 kts | 195° |
| 2026-04-30 11:16 | 48.03470 | 7.45657 | 11851 ft | 329 kts | 195° |
| 2026-04-30 11:17 | 48.02012 | 7.45042 | 11491 ft | 325 kts | 189° |
| 2026-04-30 11:17 | 47.99820 | 7.44633 | 10954 ft | 312 kts | 181° |
| 2026-04-30 11:17 | 47.97682 | 7.44394 | 10417 ft | 305 kts | 182° |
| 2026-04-30 11:17 | 47.95582 | 7.44155 | 9874 ft | 298 kts | 181° |
| 2026-04-30 11:18 | 47.93542 | 7.43916 | 9300 ft | 291 kts | 182° |
| 2026-04-30 11:18 | 47.89562 | 7.43442 | 8168 ft | 283 kts | 181° |
| 2026-04-30 11:18 | 47.87620 | 7.43209 | 7624 ft | 275 kts | 181° |
| 2026-04-30 11:19 | 47.85739 | 7.42976 | 7089 ft | 268 kts | 181° |
| 2026-04-30 11:19 | 47.83907 | 7.42752 | 6553 ft | 260 kts | 181° |
| 2026-04-30 11:19 | 47.82135 | 7.42537 | 6057 ft | 252 kts | 181° |
| 2026-04-30 11:19 | 47.80409 | 7.42328 | 5542 ft | 246 kts | 181° |
| 2026-04-30 11:20 | 47.78724 | 7.42127 | 5040 ft | 240 kts | 180° |
| 2026-04-30 11:20 | 47.77075 | 7.41941 | 4547 ft | 236 kts | 178° |
| 2026-04-30 11:20 | 47.75454 | 7.42103 | 4103 ft | 229 kts | 165° |
| 2026-04-30 11:20 | 47.73967 | 7.42733 | 3833 ft | 217 kts | 155° |
| 2026-04-30 11:21 | 47.72600 | 7.43633 | 3554 ft | 213 kts | 151° |
| 2026-04-30 11:21 | 47.71266 | 7.44540 | 3260 ft | 207 kts | 153° |
| 2026-04-30 11:21 | 47.69973 | 7.45418 | 3002 ft | 202 kts | 152° |
| 2026-04-30 11:21 | 47.68721 | 7.46267 | 2741 ft | 192 kts | 152° |
| 2026-04-30 11:22 | 47.67543 | 7.47059 | 2436 ft | 181 kts | 153° |
| 2026-04-30 11:22 | 47.66433 | 7.47802 | 2215 ft | 168 kts | 152° |
| 2026-04-30 11:22 | 47.65422 | 7.48496 | 2092 ft | 152 kts | 151° |
| 2026-04-30 11:22 | 47.64492 | 7.49134 | 1839 ft | 143 kts | 152° |
| 2026-04-30 11:23 | 47.63604 | 7.49740 | 1719 ft | 139 kts | 147° |
| 2026-04-30 11:23 | 47.62935 | 7.50711 | 1686 ft | 135 kts | 116° |
| 2026-04-30 11:23 | 47.62340 | 7.53379 | 1567 ft | 141 kts | 90° |
| 2026-04-30 11:24 | 47.62464 | 7.54782 | 1525 ft | 134 kts | 73° |
| 2026-04-30 11:24 | 47.62554 | 7.56131 | 1530 ft | 135 kts | 98° |
| 2026-04-30 11:24 | 47.62013 | 7.57283 | 1558 ft | 148 kts | 142° |
| 2026-04-30 11:25 | 47.60036 | 7.56950 | 1410 ft | 157 kts | 222° |
| 2026-04-30 11:25 | 47.59395 | 7.55662 | 1224 ft | 155 kts | 251° |
| 2026-04-30 11:25 | 47.58956 | 7.52720 | 890 ft | 126 kts | 258° |
| 2026-04-30 11:26 | 47.58865 | 7.51686 | 890 ft | 15 kts | 341° |
| 2026-04-30 11:26 | 47.58971 | 7.51706 | 890 ft | 18 kts | 44° |
| 2026-04-30 11:26 | 47.59061 | 7.51843 | 890 ft | 20 kts | 45° |
| 2026-04-30 11:27 | 47.59167 | 7.51999 | 890 ft | 23 kts | 45° |
| 2026-04-30 11:27 | 47.59260 | 7.52151 | 890 ft | 19 kts | 57° |
| 2026-04-30 11:27 | 47.59322 | 7.52339 | 890 ft | 18 kts | 64° |
| 2026-04-30 11:27 | 47.59377 | 7.52516 | 890 ft | 17 kts | 70° |
| 2026-04-30 11:28 | 47.59467 | 7.52793 | 890 ft | 15 kts | 61° |
| 2026-04-30 11:28 | 47.59564 | 7.52813 | 890 ft | 17 kts | 336° |
| 2026-04-30 11:28 | 47.59638 | 7.52841 | 890 ft | 14 kts | 61° |
| 2026-04-30 11:29 | 47.59681 | 7.52976 | 890 ft | 10 kts | 65° |
| 2026-04-30 11:29 | 47.59747 | 7.53039 | 890 ft | 14 kts | 36° |
| 2026-04-30 11:29 | 47.59754 | 7.53191 | 890 ft | 3 kts | 65° |
| 2026-04-30 11:30 | 47.59755 | 7.53193 | 890 ft | 0 kts | 65° |